Time;durP1;ratioP1;P1;durP2;ratioP2;P2;SDS_P1;SDS_P2;PMS_P1;PMS_P2;Temp;Humidity;BMP_temperature;BMP_pressure;BME280_temperature;BME280_humidity;BME280_pressure;Samples;Min_cycle;Max_cycle;Signal;HPM_P1;HPM_P2
2024/04/18 00:01:42;;;;;;;1.03;0.60;;;;;;;;;;5509651;25;20281;-62
2024/04/18 00:04:13;;;;;;;0.63;0.60;;;;;;;;;;5521921;26;20237;-61
2024/04/18 00:06:40;;;;;;;0.53;0.30;;;;;;;;;;5524188;26;20277;-61
2024/04/18 00:09:09;;;;;;;0.40;0.40;;;;;;;;;;5496929;25;20231;-61
2024/04/18 00:11:35;;;;;;;0.50;0.50;;;;;;;;;;5487076;26;20239;-61
2024/04/18 00:14:04;;;;;;;0.57;0.50;;;;;;;;;;5513987;26;20234;-61
2024/04/18 00:16:30;;;;;;;0.33;0.33;;;;;;;;;;5512152;26;20278;-61
2024/04/18 00:18:59;;;;;;;0.40;0.40;;;;;;;;;;5523395;26;20269;-61
2024/04/18 00:21:28;;;;;;;1.13;0.50;;;;;;;;;;5522587;26;20227;-61
2024/04/18 00:23:57;;;;;;;0.43;0.43;;;;;;;;;;5519047;25;20225;-62
2024/04/18 00:26:23;;;;;;;0.30;0.30;;;;;;;;;;5502473;26;20413;-61
2024/04/18 00:28:52;;;;;;;0.77;0.40;;;;;;;;;;5501762;26;20243;-60
2024/04/18 00:31:18;;;;;;;0.50;0.50;;;;;;;;;;5486790;26;20582;-61
2024/04/18 00:33:47;;;;;;;0.43;0.43;;;;;;;;;;5486980;26;20231;-61
2024/04/18 00:36:13;;;;;;;0.40;0.40;;;;;;;;;;5486857;26;20219;-61
2024/04/18 00:38:45;;;;;;;0.30;0.30;;;;;;;;;;5501791;26;20304;-61
2024/04/18 00:41:11;;;;;;;0.30;0.30;;;;;;;;;;5521613;25;20309;-62
2024/04/18 00:43:40;;;;;;;0.40;0.40;;;;;;;;;;5523539;25;20225;-61
2024/04/18 00:46:07;;;;;;;1.17;0.40;;;;;;;;;;5523653;25;20565;-61
2024/04/18 00:48:35;;;;;;;0.30;0.30;;;;;;;;;;5521350;25;20293;-61
2024/04/18 00:51:02;;;;;;;0.30;0.30;;;;;;;;;;5505919;26;20236;-61
2024/04/18 00:53:33;;;;;;;0.23;0.23;;;;;;;;;;5508006;25;20238;-62
2024/04/18 00:56:02;;;;;;;0.53;0.30;;;;;;;;;;5514566;26;20576;-61
2024/04/18 00:58:32;;;;;;;0.30;0.30;;;;;;;;;;5502323;26;20700;-61
2024/04/18 01:00:58;;;;;;;0.30;0.30;;;;;;;;;;5522869;26;20225;-62
2024/04/18 01:03:27;;;;;;;0.33;0.20;;;;;;;;;;5521273;26;20276;-61
2024/04/18 01:05:53;;;;;;;0.50;0.50;;;;;;;;;;5507684;26;20269;-61
2024/04/18 01:08:22;;;;;;;0.30;0.30;;;;;;;;;;5522302;26;20233;-61
2024/04/18 01:10:48;;;;;;;1.27;0.40;;;;;;;;;;5521949;26;20267;-61
2024/04/18 01:13:20;;;;;;;0.50;0.50;;;;;;;;;;5498685;26;20291;-61
2024/04/18 01:15:46;;;;;;;0.30;0.30;;;;;;;;;;5496503;26;20293;-62
2024/04/18 01:18:15;;;;;;;0.33;0.33;;;;;;;;;;5522989;26;20237;-62
2024/04/18 01:20:43;;;;;;;0.40;0.40;;;;;;;;;;5510362;26;20714;-61
2024/04/18 01:23:12;;;;;;;0.43;0.43;;;;;;;;;;5485946;26;20593;-61
2024/04/18 01:25:38;;;;;;;0.30;0.30;;;;;;;;;;5493833;26;20270;-61
2024/04/18 01:28:10;;;;;;;0.40;0.40;;;;;;;;;;5512203;26;20871;-61
2024/04/18 01:30:37;;;;;;;0.37;0.37;;;;;;;;;;5506667;25;20276;-61
2024/04/18 01:33:08;;;;;;;0.33;0.33;;;;;;;;;;5523903;26;20222;-61
2024/04/18 01:35:34;;;;;;;0.40;0.40;;;;;;;;;;5513789;26;20634;-62
2024/04/18 01:38:05;;;;;;;0.43;0.43;;;;;;;;;;5521904;26;20282;-60
2024/04/18 01:40:31;;;;;;;0.40;0.40;;;;;;;;;;5524311;26;20269;-62
2024/04/18 01:43:04;;;;;;;0.40;0.40;;;;;;;;;;5505259;26;20338;-61
2024/04/18 01:45:33;;;;;;;0.30;0.30;;;;;;;;;;5512931;26;20237;-61
2024/04/18 01:48:02;;;;;;;0.30;0.30;;;;;;;;;;5524734;26;20278;-61
2024/04/18 01:50:28;;;;;;;0.50;0.50;;;;;;;;;;5500255;25;20236;-62
2024/04/18 01:52:58;;;;;;;0.40;0.40;;;;;;;;;;5502256;26;20281;-61
2024/04/18 01:55:24;;;;;;;0.50;0.50;;;;;;;;;;5501616;25;20233;-61
2024/04/18 01:57:53;;;;;;;0.57;0.57;;;;;;;;;;5489345;26;20663;-61
2024/04/18 02:00:19;;;;;;;0.50;0.40;;;;;;;;;;5488149;26;20269;-61
2024/04/18 02:02:52;;;;;;;0.50;0.50;;;;;;;;;;5518550;26;20231;-62
2024/04/18 02:05:18;;;;;;;0.93;0.83;;;;;;;;;;5506485;26;20281;-61
2024/04/18 02:07:47;;;;;;;0.40;0.40;;;;;;;;;;5510806;26;20337;-61
2024/04/18 02:10:13;;;;;;;0.50;0.50;;;;;;;;;;5525319;25;20464;-61
2024/04/18 02:12:42;;;;;;;1.13;0.40;;;;;;;;;;5524028;26;20621;-61
2024/04/18 02:15:08;;;;;;;2.73;0.70;;;;;;;;;;5521839;26;20229;-61
2024/04/18 02:17:37;;;;;;;1.07;0.50;;;;;;;;;;5497576;26;20366;-61
2024/04/18 02:20:07;;;;;;;0.50;0.50;;;;;;;;;;5496462;26;20227;-61
2024/04/18 02:22:36;;;;;;;0.83;0.60;;;;;;;;;;5501044;26;20233;-61
2024/04/18 02:25:06;;;;;;;1.57;0.50;;;;;;;;;;5521692;25;20283;-61
2024/04/18 02:27:36;;;;;;;0.47;0.47;;;;;;;;;;5505591;25;20231;-61
2024/04/18 02:30:03;;;;;;;1.40;0.33;;;;;;;;;;5507455;25;20268;-61
2024/04/18 02:32:32;;;;;;;0.50;0.50;;;;;;;;;;5518331;26;20592;-61
2024/04/18 02:34:58;;;;;;;0.50;0.50;;;;;;;;;;5523748;25;20220;-62
2024/04/18 02:37:30;;;;;;;1.60;0.63;;;;;;;;;;5499189;26;20236;-61
2024/04/18 02:39:56;;;;;;;0.40;0.40;;;;;;;;;;5519469;26;20233;-61
2024/04/18 02:42:26;;;;;;;0.40;0.40;;;;;;;;;;5502869;26;20594;-61
2024/04/18 02:44:52;;;;;;;2.47;0.53;;;;;;;;;;5497207;26;20224;-60
2024/04/18 02:47:21;;;;;;;0.40;0.40;;;;;;;;;;5510296;26;20331;-61
2024/04/18 02:49:48;;;;;;;0.50;0.50;;;;;;;;;;5495703;26;20261;-60
2024/04/18 02:52:17;;;;;;;0.50;0.50;;;;;;;;;;5488206;26;20230;-61
2024/04/18 02:54:45;;;;;;;0.60;0.60;;;;;;;;;;5488168;26;20224;-61
2024/04/18 02:57:14;;;;;;;0.60;0.60;;;;;;;;;;5487998;26;20269;-61
2024/04/18 02:59:42;;;;;;;1.60;0.80;;;;;;;;;;5499326;26;20222;-60
2024/04/18 03:02:11;;;;;;;1.70;0.40;;;;;;;;;;5511958;26;20328;-62
2024/04/18 03:04:37;;;;;;;0.97;0.70;;;;;;;;;;5508408;26;20278;-62
2024/04/18 03:07:06;;;;;;;0.70;0.70;;;;;;;;;;5503475;26;20238;-62
2024/04/18 03:09:32;;;;;;;0.60;0.60;;;;;;;;;;5487611;26;20214;-62
2024/04/18 03:12:04;;;;;;;0.67;0.67;;;;;;;;;;5488139;26;20277;-62
2024/04/18 03:14:30;;;;;;;1.37;0.70;;;;;;;;;;5507573;26;20275;-62
2024/04/18 03:16:59;;;;;;;1.83;1.30;;;;;;;;;;5509808;25;20233;-62
2024/04/18 03:19:25;;;;;;;0.63;0.63;;;;;;;;;;5524475;25;20220;-62
2024/04/18 03:21:54;;;;;;;1.30;1.20;;;;;;;;;;5501163;26;20806;-62
2024/04/18 03:24:21;;;;;;;1.57;1.47;;;;;;;;;;5499496;26;20229;-62
2024/04/18 03:26:50;;;;;;;1.50;1.40;;;;;;;;;;5511107;26;20229;-62
2024/04/18 03:29:19;;;;;;;2.63;1.80;;;;;;;;;;5507819;26;20234;-62
2024/04/18 03:31:50;;;;;;;1.90;1.90;;;;;;;;;;5524740;25;20228;-62
2024/04/18 03:34:16;;;;;;;2.10;2.00;;;;;;;;;;5523244;25;20242;-62
2024/04/18 03:36:47;;;;;;;1.57;1.57;;;;;;;;;;5510086;26;20221;-62
2024/04/18 03:39:16;;;;;;;1.33;1.33;;;;;;;;;;5524209;25;20214;-62
2024/04/18 03:41:45;;;;;;;1.70;1.60;;;;;;;;;;5516022;25;20621;-62
2024/04/18 03:44:14;;;;;;;2.87;2.70;;;;;;;;;;5502899;26;20271;-62
2024/04/18 03:46:45;;;;;;;2.60;2.40;;;;;;;;;;5509678;26;20230;-62
2024/04/18 03:49:14;;;;;;;2.00;1.90;;;;;;;;;;5520791;25;20230;-62
2024/04/18 03:51:41;;;;;;;2.40;2.37;;;;;;;;;;5512744;25;20234;-62
2024/04/18 03:54:10;;;;;;;2.43;2.23;;;;;;;;;;5517956;26;20234;-62
2024/04/18 03:56:36;;;;;;;2.30;2.20;;;;;;;;;;5516863;25;20750;-62
2024/04/18 03:59:05;;;;;;;1.90;1.90;;;;;;;;;;5489962;26;20227;-62
2024/04/18 04:01:51;;;;;;;2.00;1.90;;;;;;;;;;5497861;26;20237;-62
2024/04/18 04:04:22;;;;;;;3.37;2.90;;;;;;;;;;5507418;26;20664;-62
2024/04/18 04:06:49;;;;;;;2.47;2.37;;;;;;;;;;5486944;26;20231;-62
2024/04/18 04:09:18;;;;;;;2.30;2.10;;;;;;;;;;5500977;26;20237;-62
2024/04/18 04:11:44;;;;;;;2.83;2.63;;;;;;;;;;5486937;26;20987;-62
2024/04/18 04:14:13;;;;;;;4.43;4.03;;;;;;;;;;5486889;26;20267;-62
2024/04/18 04:16:39;;;;;;;13.43;9.53;;;;;;;;;;5497975;26;20226;-62
2024/04/18 04:19:08;;;;;;;19.83;11.27;;;;;;;;;;5508230;25;20246;-62
2024/04/18 04:21:37;;;;;;;9.20;6.97;;;;;;;;;;5502776;25;20273;-62
2024/04/18 04:24:06;;;;;;;2.83;2.63;;;;;;;;;;5491926;26;20239;-62
2024/04/18 04:26:33;;;;;;;3.80;3.20;;;;;;;;;;5512891;26;20574;-62
2024/04/18 04:29:02;;;;;;;3.20;2.80;;;;;;;;;;5513204;26;20553;-62
2024/04/18 04:31:29;;;;;;;3.50;3.30;;;;;;;;;;5500097;26;20285;-62
2024/04/18 04:33:58;;;;;;;2.90;2.70;;;;;;;;;;5486697;26;20234;-62
2024/04/18 04:36:24;;;;;;;3.60;3.40;;;;;;;;;;5486655;26;20734;-62
2024/04/18 04:38:56;;;;;;;4.00;3.70;;;;;;;;;;5486067;26;20231;-62
2024/04/18 04:41:22;;;;;;;3.57;3.27;;;;;;;;;;5507693;26;20785;-61
2024/04/18 04:43:51;;;;;;;3.93;3.63;;;;;;;;;;5515619;26;20289;-62
2024/04/18 04:46:18;;;;;;;4.57;4.17;;;;;;;;;;5502994;25;20753;-63
2024/04/18 04:48:46;;;;;;;4.20;3.83;;;;;;;;;;5501413;26;20858;-62
2024/04/18 04:51:14;;;;;;;3.70;3.50;;;;;;;;;;5486092;26;20231;-62
2024/04/18 04:53:43;;;;;;;4.07;3.77;;;;;;;;;;5486278;26;20226;-62
2024/04/18 04:56:12;;;;;;;3.90;3.70;;;;;;;;;;5486135;26;20560;-62
2024/04/18 04:58:41;;;;;;;4.13;3.80;;;;;;;;;;5494094;26;20749;-62
2024/04/18 05:01:07;;;;;;;3.77;3.57;;;;;;;;;;5522030;25;20238;-62
2024/04/18 05:03:37;;;;;;;3.77;3.57;;;;;;;;;;5520389;25;20285;-62
2024/04/18 05:06:04;;;;;;;3.77;3.47;;;;;;;;;;5515846;25;20273;-62
2024/04/18 05:08:33;;;;;;;3.47;3.27;;;;;;;;;;5521029;25;20276;-62
2024/04/18 05:10:59;;;;;;;3.20;3.00;;;;;;;;;;5525868;26;20230;-62
2024/04/18 05:13:31;;;;;;;3.50;3.20;;;;;;;;;;5525927;26;20761;-62
2024/04/18 05:15:57;;;;;;;4.10;3.80;;;;;;;;;;5526245;26;20683;-61
2024/04/18 05:18:26;;;;;;;3.23;3.00;;;;;;;;;;5526204;25;20266;-62
2024/04/18 05:20:53;;;;;;;3.40;3.10;;;;;;;;;;5525657;26;20256;-61
2024/04/18 05:23:22;;;;;;;3.97;3.70;;;;;;;;;;5517020;26;20231;-62
2024/04/18 05:25:49;;;;;;;4.87;4.47;;;;;;;;;;5525896;26;20269;-62
2024/04/18 05:28:29;;;;;;;4.00;3.80;;;;;;;;;;5518739;26;20238;-62
2024/04/18 05:31:01;;;;;;;4.50;4.10;;;;;;;;;;5520344;26;20261;-62
2024/04/18 05:33:31;;;;;;;4.20;3.80;;;;;;;;;;5526378;25;20567;-61
2024/04/18 05:36:00;;;;;;;3.00;2.90;;;;;;;;;;5523031;26;20226;-61
2024/04/18 05:38:29;;;;;;;2.90;2.70;;;;;;;;;;5504422;26;20835;-61
2024/04/18 05:40:58;;;;;;;2.53;2.33;;;;;;;;;;5519694;26;20237;-62
2024/04/18 05:43:27;;;;;;;2.20;2.10;;;;;;;;;;5525440;26;20227;-61
2024/04/18 05:45:56;;;;;;;2.93;2.03;;;;;;;;;;5524765;26;20278;-61
2024/04/18 05:48:28;;;;;;;3.13;2.23;;;;;;;;;;5510219;26;20240;-62
2024/04/18 05:50:58;;;;;;;1.70;1.70;;;;;;;;;;5525216;26;20241;-62
2024/04/18 05:53:27;;;;;;;2.07;1.43;;;;;;;;;;5525767;26;20226;-62
2024/04/18 05:55:56;;;;;;;1.67;1.53;;;;;;;;;;5525781;25;20270;-62
2024/04/18 05:58:25;;;;;;;1.50;1.40;;;;;;;;;;5509967;25;20224;-62
2024/04/18 06:00:54;;;;;;;1.37;1.27;;;;;;;;;;5509688;26;20269;-61
2024/04/18 06:03:24;;;;;;;1.50;1.40;;;;;;;;;;5523522;25;20455;-62
2024/04/18 06:05:56;;;;;;;1.10;1.10;;;;;;;;;;5522735;26;20226;-62
2024/04/18 06:08:25;;;;;;;3.43;1.63;;;;;;;;;;5496063;25;20228;-63
2024/04/18 06:10:54;;;;;;;1.43;1.43;;;;;;;;;;5515267;26;20238;-62
2024/04/18 06:13:24;;;;;;;1.07;1.07;;;;;;;;;;5525207;25;20738;-62
2024/04/18 06:15:54;;;;;;;1.20;1.20;;;;;;;;;;5525227;25;20255;-62
2024/04/18 06:18:22;;;;;;;1.43;1.33;;;;;;;;;;5525261;25;20229;-62
2024/04/18 06:20:52;;;;;;;1.40;1.37;;;;;;;;;;5523423;25;20231;-61
2024/04/18 06:23:24;;;;;;;1.53;1.50;;;;;;;;;;5525201;25;20591;-61
2024/04/18 06:25:53;;;;;;;1.47;1.40;;;;;;;;;;5520446;26;20358;-62
2024/04/18 06:28:22;;;;;;;1.53;1.53;;;;;;;;;;5486586;26;20249;-62
2024/04/18 06:30:51;;;;;;;1.97;1.87;;;;;;;;;;5501406;26;20741;-61
2024/04/18 06:33:20;;;;;;;1.30;1.30;;;;;;;;;;5524176;25;20273;-62
2024/04/18 06:35:49;;;;;;;1.97;1.83;;;;;;;;;;5524866;25;20229;-62
2024/04/18 06:38:18;;;;;;;1.97;1.87;;;;;;;;;;5519963;26;20263;-61
2024/04/18 06:40:50;;;;;;;2.40;2.30;;;;;;;;;;5524459;26;20263;-61
2024/04/18 06:43:19;;;;;;;1.47;1.47;;;;;;;;;;5524732;26;20718;-62
2024/04/18 06:45:48;;;;;;;1.27;1.27;;;;;;;;;;5525174;25;20353;-62
2024/04/18 06:48:17;;;;;;;2.07;1.97;;;;;;;;;;5524702;25;20277;-62
2024/04/18 06:50:46;;;;;;;2.57;2.47;;;;;;;;;;5518301;25;20229;-62
2024/04/18 06:53:15;;;;;;;2.53;2.42;;;;;;;;;;5515100;25;20377;-59
2024/04/18 06:55:44;;;;;;;2.07;1.97;;;;;;;;;;5513143;26;20735;-59
2024/04/18 06:58:16;;;;;;;1.43;1.33;;;;;;;;;;5523682;26;20579;-58
2024/04/18 07:00:46;;;;;;;0.73;0.73;;;;;;;;;;5523375;25;20364;-60
2024/04/18 07:03:15;;;;;;;0.60;0.60;;;;;;;;;;5524486;26;20227;-58
2024/04/18 07:05:44;;;;;;;0.70;0.70;;;;;;;;;;5524713;25;20629;-59
2024/04/18 07:08:14;;;;;;;1.43;0.80;;;;;;;;;;5512603;25;20233;-58
2024/04/18 07:10:41;;;;;;;0.70;0.70;;;;;;;;;;5520889;25;20276;-59
2024/04/18 07:13:10;;;;;;;2.10;1.20;;;;;;;;;;5516017;25;20847;-57
2024/04/18 07:15:42;;;;;;;0.70;0.70;;;;;;;;;;5516704;26;20273;-58
2024/04/18 07:18:11;;;;;;;0.60;0.60;;;;;;;;;;5515218;26;20268;-58
2024/04/18 07:20:37;;;;;;;0.70;0.70;;;;;;;;;;5511238;26;20281;-58
2024/04/18 07:23:09;;;;;;;1.60;0.70;;;;;;;;;;5506077;25;20235;-59
2024/04/18 07:25:40;;;;;;;0.63;0.63;;;;;;;;;;5501636;26;20305;-59
2024/04/18 07:28:09;;;;;;;0.50;0.50;;;;;;;;;;5494340;25;20226;-57
2024/04/18 07:30:38;;;;;;;0.90;0.90;;;;;;;;;;5496039;25;20958;-59
2024/04/18 07:33:13;;;;;;;2.93;1.37;;;;;;;;;;5495155;26;20253;-56
2024/04/18 07:35:42;;;;;;;1.03;1.03;;;;;;;;;;5506794;26;20729;-58
2024/04/18 07:38:11;;;;;;;0.80;0.80;;;;;;;;;;5501572;26;20718;-57
2024/04/18 07:40:40;;;;;;;0.97;0.97;;;;;;;;;;5510271;25;20596;-58
2024/04/18 07:43:09;;;;;;;0.87;0.87;;;;;;;;;;5505698;26;20273;-58
2024/04/18 07:45:38;;;;;;;0.87;0.53;;;;;;;;;;5508430;25;20225;-58
2024/04/18 07:48:13;;;;;;;0.70;0.50;;;;;;;;;;5514382;26;20233;-62
2024/04/18 07:50:42;;;;;;;1.20;0.63;;;;;;;;;;5505934;25;20241;-62
2024/04/18 07:53:11;;;;;;;2.53;0.90;;;;;;;;;;5507428;25;20268;-62
2024/04/18 07:55:40;;;;;;;0.70;0.70;;;;;;;;;;5506025;26;20246;-62
2024/04/18 07:58:09;;;;;;;0.87;0.80;;;;;;;;;;5510930;26;20226;-62
2024/04/18 08:00:38;;;;;;;0.77;0.77;;;;;;;;;;5506415;26;20236;-62
2024/04/18 08:03:11;;;;;;;2.03;0.83;;;;;;;;;;5507546;26;20279;-57
2024/04/18 08:05:42;;;;;;;0.50;0.50;;;;;;;;;;5506782;25;20580;-59
2024/04/18 08:08:12;;;;;;;0.60;0.60;;;;;;;;;;5510824;25;20280;-60
2024/04/18 08:10:42;;;;;;;0.60;0.60;;;;;;;;;;5505537;26;20280;-60
2024/04/18 08:13:11;;;;;;;1.60;0.87;;;;;;;;;;5505089;26;20233;-58
2024/04/18 08:15:42;;;;;;;0.47;0.47;;;;;;;;;;5500128;26;20234;-58
2024/04/18 08:18:11;;;;;;;0.60;0.60;;;;;;;;;;5504787;25;20235;-59
2024/04/18 08:20:43;;;;;;;0.57;0.57;;;;;;;;;;5508624;26;20279;-60
2024/04/18 08:23:19;;;;;;;0.80;0.80;;;;;;;;;;5514295;25;20749;-58
2024/04/18 08:25:48;;;;;;;0.67;0.60;;;;;;;;;;5507438;26;20257;-59
2024/04/18 08:28:17;;;;;;;0.80;0.80;;;;;;;;;;5502764;26;20658;-61
2024/04/18 08:30:46;;;;;;;0.73;0.50;;;;;;;;;;5504029;25;20262;-59
2024/04/18 08:33:16;;;;;;;0.70;0.70;;;;;;;;;;5506819;26;20233;-58
2024/04/18 08:35:48;;;;;;;0.90;0.90;;;;;;;;;;5514074;26;20368;-59
2024/04/18 08:38:17;;;;;;;0.40;0.40;;;;;;;;;;5505098;26;20588;-58
2024/04/18 08:40:46;;;;;;;1.03;0.50;;;;;;;;;;5504924;26;20742;-61
2024/04/18 08:43:15;;;;;;;0.40;0.40;;;;;;;;;;5498402;25;20337;-58
2024/04/18 08:45:46;;;;;;;0.70;0.50;;;;;;;;;;5517134;26;22678;-59
2024/04/18 08:48:15;;;;;;;0.50;0.50;;;;;;;;;;5507322;25;20288;-59
2024/04/18 08:50:44;;;;;;;0.40;0.30;;;;;;;;;;5506166;26;20225;-58
2024/04/18 08:53:16;;;;;;;0.77;0.70;;;;;;;;;;5518532;26;20229;-59
2024/04/18 08:55:48;;;;;;;0.80;0.37;;;;;;;;;;5522476;26;20754;-59
2024/04/18 08:58:17;;;;;;;0.40;0.40;;;;;;;;;;5508867;25;20599;-59
2024/04/18 09:00:47;;;;;;;0.70;0.70;;;;;;;;;;5509603;26;20234;-60
2024/04/18 09:03:16;;;;;;;1.50;0.30;;;;;;;;;;5514545;26;20236;-60
2024/04/18 09:05:45;;;;;;;0.40;0.40;;;;;;;;;;5521144;25;20737;-59
2024/04/18 09:08:17;;;;;;;0.50;0.50;;;;;;;;;;5503670;25;20244;-59
2024/04/18 09:10:48;;;;;;;0.53;0.53;;;;;;;;;;5510606;26;20230;-59
2024/04/18 09:13:19;;;;;;;1.13;0.40;;;;;;;;;;5519262;25;20234;-60
2024/04/18 09:15:48;;;;;;;0.30;0.30;;;;;;;;;;5519230;26;20233;-60
2024/04/18 09:18:17;;;;;;;0.97;0.70;;;;;;;;;;5510155;26;20329;-60
2024/04/18 09:20:47;;;;;;;0.50;0.30;;;;;;;;;;5508718;26;20341;-61
2024/04/18 09:23:19;;;;;;;0.97;0.40;;;;;;;;;;5508925;25;20788;-60
2024/04/18 09:25:48;;;;;;;0.30;0.23;;;;;;;;;;5508694;25;20226;-59
2024/04/18 09:28:21;;;;;;;0.70;0.70;;;;;;;;;;5498303;26;20581;-58
2024/04/18 09:30:51;;;;;;;0.40;0.40;;;;;;;;;;5512099;25;20272;-60
2024/04/18 09:33:20;;;;;;;0.60;0.40;;;;;;;;;;5519429;25;20277;-58
2024/04/18 09:35:52;;;;;;;0.40;0.40;;;;;;;;;;5508926;26;20267;-58
2024/04/18 09:38:25;;;;;;;0.50;0.50;;;;;;;;;;5511955;25;20286;-59
2024/04/18 09:40:59;;;;;;;0.50;0.40;;;;;;;;;;5510881;26;20272;-57
2024/04/18 09:43:34;;;;;;;1.13;0.40;;;;;;;;;;5515731;25;20226;-58
2024/04/18 09:46:04;;;;;;;2.10;1.67;;;;;;;;;;5506690;25;20276;-58
2024/04/18 09:48:34;;;;;;;0.67;0.67;;;;;;;;;;5519788;26;20321;-60
2024/04/18 09:51:03;;;;;;;0.63;0.50;;;;;;;;;;5505761;26;20316;-58
2024/04/18 09:53:35;;;;;;;0.90;0.90;;;;;;;;;;5506841;25;20896;-60
2024/04/18 09:56:04;;;;;;;2.83;0.70;;;;;;;;;;5503744;26;20233;-60
2024/04/18 09:58:33;;;;;;;0.60;0.60;;;;;;;;;;5508095;26;20243;-59
2024/04/18 10:01:02;;;;;;;0.83;0.83;;;;;;;;;;5508949;26;20247;-58
2024/04/18 10:03:31;;;;;;;0.70;0.70;;;;;;;;;;5507162;26;20284;-59
2024/04/18 10:06:02;;;;;;;0.50;0.50;;;;;;;;;;5508433;26;20236;-62
2024/04/18 10:08:36;;;;;;;0.60;0.50;;;;;;;;;;5511531;25;20229;-59
2024/04/18 10:11:06;;;;;;;1.17;0.60;;;;;;;;;;5507957;26;20277;-60
2024/04/18 10:13:35;;;;;;;0.60;0.60;;;;;;;;;;5508662;26;20335;-59
2024/04/18 10:16:10;;;;;;;0.50;0.50;;;;;;;;;;5504578;26;20746;-59
2024/04/18 10:18:41;;;;;;;0.70;0.70;;;;;;;;;;5505252;26;20795;-58
2024/04/18 10:21:11;;;;;;;0.87;0.70;;;;;;;;;;5508130;26;20230;-59
2024/04/18 10:23:48;;;;;;;0.67;0.67;;;;;;;;;;5510189;26;20279;-63
2024/04/18 10:26:17;;;;;;;0.90;0.90;;;;;;;;;;5495167;25;20235;-63
2024/04/18 10:28:47;;;;;;;1.13;0.70;;;;;;;;;;5507189;26;20231;-59
2024/04/18 10:31:16;;;;;;;0.70;0.70;;;;;;;;;;5506646;25;20230;-59
2024/04/18 10:33:45;;;;;;;1.27;0.40;;;;;;;;;;5510056;25;20281;-58
2024/04/18 10:36:16;;;;;;;0.50;0.50;;;;;;;;;;5503050;26;20282;-59
2024/04/18 10:38:48;;;;;;;0.67;0.60;;;;;;;;;;5508680;25;20243;-58
2024/04/18 10:41:18;;;;;;;0.60;0.60;;;;;;;;;;5518038;26;20345;-59
2024/04/18 10:43:48;;;;;;;1.17;1.17;;;;;;;;;;5504792;26;20232;-58
2024/04/18 10:46:18;;;;;;;0.70;0.70;;;;;;;;;;5504818;26;20227;-59
2024/04/18 10:48:47;;;;;;;0.50;0.50;;;;;;;;;;5510157;26;20238;-60
2024/04/18 10:51:16;;;;;;;0.77;0.77;;;;;;;;;;5502628;25;20289;-61
2024/04/18 10:53:47;;;;;;;0.57;0.57;;;;;;;;;;5510684;26;20299;-59
2024/04/18 10:56:17;;;;;;;0.40;0.40;;;;;;;;;;5507363;26;20233;-60
2024/04/18 10:58:46;;;;;;;0.50;0.50;;;;;;;;;;5505005;25;20229;-58
2024/04/18 11:01:22;;;;;;;0.60;0.60;;;;;;;;;;5509591;25;20634;-58
2024/04/18 11:03:54;;;;;;;0.60;0.60;;;;;;;;;;5509025;25;20688;-59
2024/04/18 11:06:23;;;;;;;1.03;0.70;;;;;;;;;;5519482;25;20227;-58
2024/04/18 11:08:56;;;;;;;0.80;0.80;;;;;;;;;;5487442;26;20229;-62
2024/04/18 11:11:27;;;;;;;0.47;0.47;;;;;;;;;;5493639;26;20232;-61
2024/04/18 11:13:56;;;;;;;0.67;0.67;;;;;;;;;;5503333;26;20304;-61
2024/04/18 11:16:26;;;;;;;0.60;0.60;;;;;;;;;;5504386;26;20229;-61
2024/04/18 11:18:55;;;;;;;0.80;0.73;;;;;;;;;;5487453;26;20270;-61
2024/04/18 11:21:24;;;;;;;0.60;0.60;;;;;;;;;;5487678;26;20235;-62
2024/04/18 11:23:55;;;;;;;1.17;0.57;;;;;;;;;;5487961;26;20728;-63
2024/04/18 11:26:24;;;;;;;2.00;0.50;;;;;;;;;;5496598;26;20294;-58
2024/04/18 11:28:54;;;;;;;1.60;0.60;;;;;;;;;;5520591;25;20481;-57
2024/04/18 11:31:20;;;;;;;0.63;0.63;;;;;;;;;;5523944;26;20241;-58
2024/04/18 11:33:49;;;;;;;0.83;0.83;;;;;;;;;;5521424;25;20270;-57
2024/04/18 11:36:18;;;;;;;0.67;0.67;;;;;;;;;;5524174;25;20231;-58
2024/04/18 11:38:47;;;;;;;0.50;0.50;;;;;;;;;;5523468;25;20741;-58
2024/04/18 11:41:19;;;;;;;0.50;0.50;;;;;;;;;;5524010;25;20230;-58
2024/04/18 11:43:48;;;;;;;0.60;0.60;;;;;;;;;;5515371;26;20620;-57
2024/04/18 11:46:17;;;;;;;0.93;0.93;;;;;;;;;;5514182;26;20801;-57
2024/04/18 11:48:46;;;;;;;1.07;1.07;;;;;;;;;;5519599;26;20227;-57
2024/04/18 11:51:12;;;;;;;1.10;1.10;;;;;;;;;;5521811;25;20285;-58
2024/04/18 11:53:42;;;;;;;2.10;1.27;;;;;;;;;;5509304;26;20301;-58
2024/04/18 11:56:11;;;;;;;2.50;0.87;;;;;;;;;;5506964;25;20234;-57
2024/04/18 11:58:43;;;;;;;1.67;1.13;;;;;;;;;;5501739;26;20266;-58
2024/04/18 12:01:13;;;;;;;1.00;0.80;;;;;;;;;;5520209;26;20238;-58
2024/04/18 12:03:43;;;;;;;0.50;0.50;;;;;;;;;;5523787;25;20786;-58
2024/04/18 12:06:13;;;;;;;0.63;0.63;;;;;;;;;;5523296;25;20281;-58
2024/04/18 12:08:42;;;;;;;1.20;0.57;;;;;;;;;;5521721;25;21312;-58
2024/04/18 12:11:11;;;;;;;0.47;0.47;;;;;;;;;;5503879;25;20234;-58
2024/04/18 12:13:43;;;;;;;2.00;0.60;;;;;;;;;;5519366;26;20269;-58
2024/04/18 12:16:09;;;;;;;0.63;0.40;;;;;;;;;;5516244;26;20247;-58
2024/04/18 12:18:39;;;;;;;1.37;0.60;;;;;;;;;;5496634;26;20327;-58
2024/04/18 12:21:08;;;;;;;0.40;0.40;;;;;;;;;;5503577;26;20753;-58
2024/04/18 12:23:42;;;;;;;0.50;0.50;;;;;;;;;;5497253;26;20235;-58
2024/04/18 12:26:11;;;;;;;0.50;0.50;;;;;;;;;;5500376;26;20358;-58
2024/04/18 12:28:43;;;;;;;0.40;0.40;;;;;;;;;;5505000;26;20270;-57
2024/04/18 12:31:12;;;;;;;1.97;0.50;;;;;;;;;;5522209;25;20293;-58
2024/04/18 12:33:41;;;;;;;1.47;0.73;;;;;;;;;;5515877;26;20721;-57
2024/04/18 12:36:12;;;;;;;0.20;0.20;;;;;;;;;;5512479;26;20562;-57
2024/04/18 12:38:41;;;;;;;0.27;0.27;;;;;;;;;;5518849;26;20231;-58
2024/04/18 12:41:11;;;;;;;0.50;0.50;;;;;;;;;;5505800;26;20356;-58
2024/04/18 12:43:43;;;;;;;2.47;0.43;;;;;;;;;;5505134;26;20232;-58
2024/04/18 12:46:12;;;;;;;0.20;0.20;;;;;;;;;;5505391;26;20602;-58
2024/04/18 12:48:41;;;;;;;0.30;0.30;;;;;;;;;;5504924;26;20288;-58
2024/04/18 12:51:10;;;;;;;0.80;0.30;;;;;;;;;;5518104;26;20238;-58
2024/04/18 12:53:39;;;;;;;17.57;0.43;;;;;;;;;;5504114;26;20340;-57
2024/04/18 12:56:08;;;;;;;0.20;0.10;;;;;;;;;;5522195;26;20246;-58
2024/04/18 12:58:37;;;;;;;0.10;0.10;;;;;;;;;;5508098;26;20273;-57
2024/04/18 13:01:09;;;;;;;0.40;0.20;;;;;;;;;;5522636;25;20288;-58
2024/04/18 13:03:38;;;;;;;1.27;0.30;;;;;;;;;;5508479;26;20303;-57
2024/04/18 13:06:08;;;;;;;0.20;0.20;;;;;;;;;;5522630;26;20242;-58
2024/04/18 13:08:38;;;;;;;1.03;0.30;;;;;;;;;;5522059;26;20233;-58
2024/04/18 13:11:06;;;;;;;0.30;0.30;;;;;;;;;;5516288;26;20230;-57
2024/04/18 13:13:35;;;;;;;0.50;0.50;;;;;;;;;;5516499;26;20225;-58
2024/04/18 13:16:05;;;;;;;0.40;0.40;;;;;;;;;;5522644;25;20268;-57
2024/04/18 13:18:36;;;;;;;0.10;0.10;;;;;;;;;;5519130;25;20231;-57
2024/04/18 13:21:05;;;;;;;0.20;0.20;;;;;;;;;;5514797;26;20722;-57
2024/04/18 13:23:35;;;;;;;0.30;0.30;;;;;;;;;;5507325;26;20226;-57
2024/04/18 13:26:03;;;;;;;0.83;0.20;;;;;;;;;;5522285;26;20343;-57
2024/04/18 13:28:33;;;;;;;0.20;0.20;;;;;;;;;;5522594;25;20726;-57
2024/04/18 13:31:02;;;;;;;0.47;0.47;;;;;;;;;;5521327;25;20348;-57
2024/04/18 13:33:31;;;;;;;0.50;0.50;;;;;;;;;;5521105;25;20734;-57
2024/04/18 13:36:02;;;;;;;0.87;0.30;;;;;;;;;;5526116;25;20230;-57
2024/04/18 13:38:32;;;;;;;0.40;0.40;;;;;;;;;;5525723;25;20221;-57
2024/04/18 13:41:01;;;;;;;0.50;0.50;;;;;;;;;;5525843;25;20309;-57
2024/04/18 13:43:30;;;;;;;0.80;0.40;;;;;;;;;;5504885;25;20345;-57
2024/04/18 13:45:59;;;;;;;0.30;0.20;;;;;;;;;;5488723;26;20935;-59
2024/04/18 13:48:28;;;;;;;0.20;0.20;;;;;;;;;;5512529;26;20982;-59
2024/04/18 13:50:57;;;;;;;1.13;0.43;;;;;;;;;;5488527;26;20222;-59
2024/04/18 13:53:28;;;;;;;1.10;0.33;;;;;;;;;;5489095;26;20231;-58
2024/04/18 13:55:54;;;;;;;0.30;0.30;;;;;;;;;;5489338;26;20227;-59
2024/04/18 13:58:24;;;;;;;0.20;0.20;;;;;;;;;;5488950;26;20239;-59
2024/04/18 14:00:51;;;;;;;0.20;0.20;;;;;;;;;;5488051;26;20395;-62
2024/04/18 14:03:21;;;;;;;0.20;0.20;;;;;;;;;;5519731;26;20819;-58
2024/04/18 14:05:50;;;;;;;2.10;0.23;;;;;;;;;;5524097;26;20223;-59
2024/04/18 14:08:19;;;;;;;0.20;0.20;;;;;;;;;;5525487;25;20269;-57
2024/04/18 14:10:50;;;;;;;0.40;0.20;;;;;;;;;;5499985;25;20274;-62
2024/04/18 14:13:19;;;;;;;0.27;0.27;;;;;;;;;;5488786;26;20260;-60
2024/04/18 14:18:48;;;;;;;0.20;0.20;;;;;;;;;;5488880;26;20240;-59
2024/04/18 14:18:52;;;;;;;1.13;0.30;;;;;;;;;;5509754;26;20218;-61
2024/04/18 14:21:22;;;;;;;0.20;0.20;;;;;;;;;;5514686;25;20237;-61
2024/04/18 14:23:51;;;;;;;0.20;0.20;;;;;;;;;;5524234;25;20228;-60
2024/04/18 14:26:23;;;;;;;0.30;0.30;;;;;;;;;;5525026;25;20238;-60
2024/04/18 14:28:52;;;;;;;0.30;0.30;;;;;;;;;;5522887;25;20238;-60
2024/04/18 14:31:22;;;;;;;0.30;0.20;;;;;;;;;;5509347;26;20360;-61
2024/04/18 14:33:51;;;;;;;0.30;0.30;;;;;;;;;;5520056;25;20273;-61
2024/04/18 14:36:20;;;;;;;0.83;0.23;;;;;;;;;;5508762;25;20226;-61
2024/04/18 14:38:48;;;;;;;1.30;0.20;;;;;;;;;;5506346;26;20223;-61
2024/04/18 14:41:17;;;;;;;0.20;0.20;;;;;;;;;;5485227;26;20232;-61
2024/04/18 14:43:49;;;;;;;0.30;0.30;;;;;;;;;;5496692;26;20223;-61
2024/04/18 14:46:18;;;;;;;0.77;0.50;;;;;;;;;;5486626;26;20227;-61
2024/04/18 14:48:47;;;;;;;0.30;0.30;;;;;;;;;;5485706;26;20221;-61
2024/04/18 14:51:16;;;;;;;0.20;0.20;;;;;;;;;;5488046;26;20231;-61
2024/04/18 14:53:45;;;;;;;0.30;0.30;;;;;;;;;;5488401;26;20755;-61
2024/04/18 14:56:14;;;;;;;0.37;0.37;;;;;;;;;;5513059;26;20221;-61